Time;durP1;ratioP1;P1;durP2;ratioP2;P2;SDS_P1;SDS_P2;PMS_P1;PMS_P2;Temp;Humidity;BMP_temperature;BMP_pressure;BME280_temperature;BME280_humidity;BME280_pressure;Samples;Min_cycle;Max_cycle;Signal;HPM_P1;HPM_P2
2023/01/31 00:01:37;;;;;;;5.35;3.55;;;19.30;68.50;;;;;;5039699;28;20208;-77
2023/01/31 00:04:06;;;;;;;4.38;3.15;;;19.30;68.50;;;;;;5039682;28;20188;-77
2023/01/31 00:06:35;;;;;;;5.82;3.97;;;19.30;68.40;;;;;;5038329;28;20207;-80
2023/01/31 00:09:03;;;;;;;4.32;3.47;;;19.30;68.50;;;;;;5039387;28;20196;-80
2023/01/31 00:11:31;;;;;;;6.07;3.45;;;19.30;68.40;;;;;;5038111;28;20207;-79
2023/01/31 00:13:59;;;;;;;4.78;3.03;;;19.30;68.40;;;;;;5040132;28;20223;-79
2023/01/31 00:16:26;;;;;;;6.88;4.05;;;19.20;68.20;;;;;;5040781;28;20681;-80
2023/01/31 00:18:54;;;;;;;3.60;3.30;;;19.20;69.00;;;;;;5038915;28;20662;-79
2023/01/31 00:21:24;;;;;;;4.75;3.30;;;19.20;68.20;;;;;;5039376;28;20685;-80
2023/01/31 00:23:52;;;;;;;3.80;3.20;;;19.20;68.20;;;;;;5040465;28;20203;-78
2023/01/31 00:26:21;;;;;;;6.30;4.20;;;19.20;68.10;;;;;;5039787;28;20218;-79
2023/01/31 00:28:49;;;;;;;4.82;3.50;;;19.10;68.00;;;;;;5039367;28;20200;-78
2023/01/31 00:31:17;;;;;;;3.85;3.25;;;19.10;68.00;;;;;;5040890;28;20212;-79
2023/01/31 00:33:46;;;;;;;5.95;3.60;;;19.10;67.90;;;;;;5038999;28;20226;-79
2023/01/31 00:36:16;;;;;;;6.32;4.15;;;19.10;67.90;;;;;;5039834;28;20223;-79
2023/01/31 00:38:44;;;;;;;5.03;3.38;;;19.10;67.90;;;;;;5038530;28;20203;-80
2023/01/31 00:41:12;;;;;;;7.25;3.50;;;19.10;67.90;;;;;;5037850;28;20191;-79
2023/01/31 00:43:38;;;;;;;4.13;3.40;;;19.10;67.90;;;;;;5036736;28;20199;-79
2023/01/31 00:46:05;;;;;;;6.53;3.80;;;19.10;67.90;;;;;;5038700;28;20203;-79
2023/01/31 00:48:32;;;;;;;3.95;3.50;;;19.00;67.80;;;;;;5039189;28;20203;-80
2023/01/31 00:50:59;;;;;;;5.38;2.90;;;19.00;67.80;;;;;;5039507;28;20203;-78
2023/01/31 00:53:27;;;;;;;6.05;3.33;;;19.00;67.80;;;;;;5039202;28;20202;-79
2023/01/31 00:56:01;;;;;;;5.20;3.72;;;19.00;67.80;;;;;;5039035;28;20554;-79
2023/01/31 00:58:28;;;;;;;4.53;3.38;;;19.00;67.80;;;;;;5039002;28;20207;-78
2023/01/31 01:00:54;;;;;;;4.75;2.97;;;19.00;67.80;;;;;;5039420;28;20551;-78
2023/01/31 01:03:21;;;;;;;3.92;3.30;;;18.90;67.70;;;;;;5038737;28;20210;-76
2023/01/31 01:05:48;;;;;;;5.43;3.40;;;18.90;67.70;;;;;;5037929;28;20208;-78
2023/01/31 01:08:14;;;;;;;4.65;3.60;;;18.90;67.70;;;;;;5037726;28;20591;-79
2023/01/31 01:10:43;;;;;;;4.75;3.22;;;18.90;67.60;;;;;;5039543;28;20203;-78
2023/01/31 01:13:09;;;;;;;6.97;3.97;;;18.90;67.60;;;;;;5034134;28;20204;-79
2023/01/31 01:15:39;;;;;;;4.05;3.25;;;18.90;67.70;;;;;;5039105;28;20227;-79
2023/01/31 01:18:05;;;;;;;6.15;3.47;;;18.90;67.60;;;;;;5037374;28;20202;-78
2023/01/31 01:20:33;;;;;;;4.63;3.00;;;18.90;67.60;;;;;;5039193;28;20618;-79
2023/01/31 01:23:00;;;;;;;5.30;3.42;;;18.80;67.50;;;;;;5039437;28;20203;-79
2023/01/31 01:25:27;;;;;;;4.53;3.33;;;18.80;67.50;;;;;;5038498;28;20191;-78
2023/01/31 01:27:55;;;;;;;4.53;2.95;;;18.90;67.60;;;;;;5038858;28;20214;-78
2023/01/31 01:30:22;;;;;;;4.47;3.40;;;18.80;67.40;;;;;;5037348;28;20722;-78
2023/01/31 01:32:49;;;;;;;4.28;3.17;;;18.80;67.40;;;;;;5036766;28;20200;-78
2023/01/31 01:35:16;;;;;;;6.53;3.20;;;18.80;67.40;;;;;;5039092;28;20219;-79
2023/01/31 01:37:42;;;;;;;3.92;2.95;;;18.80;67.40;;;;;;5036659;28;20203;-78
2023/01/31 01:40:10;;;;;;;3.83;3.00;;;18.80;67.40;;;;;;5038226;28;20199;-79
2023/01/31 01:42:37;;;;;;;2.97;2.55;;;18.80;67.40;;;;;;5037911;28;21028;-80
2023/01/31 01:45:14;;;;;;;3.35;2.65;;;18.70;67.30;;;;;;5038432;28;20198;-80
2023/01/31 01:47:46;;;;;;;5.93;3.10;;;18.70;67.40;;;;;;5037135;28;20203;-78
2023/01/31 01:50:16;;;;;;;5.05;3.13;;;18.70;67.30;;;;;;5037770;28;20243;-78
2023/01/31 01:52:47;;;;;;;6.57;3.60;;;18.70;67.30;;;;;;5036486;28;20226;-79
2023/01/31 01:55:19;;;;;;;5.10;3.53;;;18.70;67.30;;;;;;5037344;28;20223;-78
2023/01/31 01:57:50;;;;;;;4.68;2.97;;;18.70;67.30;;;;;;5035928;28;20199;-78
2023/01/31 02:00:21;;;;;;;4.53;3.03;;;18.70;67.30;;;;;;5036845;28;20435;-78
2023/01/31 02:02:52;;;;;;;3.17;2.67;;;18.70;67.30;;;;;;5036189;28;20211;-79
2023/01/31 02:05:28;;;;;;;4.90;3.70;;;18.60;67.10;;;;;;5035989;28;20204;-79
2023/01/31 02:07:56;;;;;;;3.85;2.63;;;18.70;67.30;;;;;;5036867;28;20202;-78
2023/01/31 02:10:27;;;;;;;2.90;2.60;;;18.60;67.10;;;;;;5038584;28;20611;-76
2023/01/31 02:12:54;;;;;;;3.50;2.63;;;18.60;67.20;;;;;;5037337;28;20197;-78
2023/01/31 02:15:22;;;;;;;4.53;3.20;;;18.60;67.20;;;;;;5038603;28;20681;-78
2023/01/31 02:17:49;;;;;;;3.05;2.58;;;18.60;67.20;;;;;;5035284;28;20203;-79
2023/01/31 02:21:01;;;;;;;3.25;2.80;;;18.60;67.20;;;;;;5036555;28;20203;-78
2023/01/31 02:23:53;;;;;;;7.97;2.60;;;18.60;67.20;;;;;;4981161;28;20302;-78
2023/01/31 02:27:08;;;;;;;4.65;2.85;;;18.60;67.10;;;;;;5026422;28;20207;-79
2023/01/31 02:29:58;;;;;;;2.97;2.50;;;18.60;67.10;;;;;;5005498;28;20680;-80
2023/01/31 02:32:45;;;;;;;3.97;2.75;;;18.60;67.10;;;;;;5034438;28;20693;-79
2023/01/31 02:35:17;;;;;;;4.47;2.35;;;18.50;67.00;;;;;;5035998;28;20316;-79
2023/01/31 02:37:53;;;;;;;4.68;2.58;;;18.50;67.00;;;;;;5036767;28;20693;-79
2023/01/31 02:40:23;;;;;;;3.05;2.72;;;18.50;67.00;;;;;;5035915;28;20674;-80
2023/01/31 02:42:58;;;;;;;4.10;2.80;;;18.50;67.10;;;;;;5036010;28;20624;-79
2023/01/31 02:45:34;;;;;;;3.58;2.58;;;18.50;67.00;;;;;;5037626;28;20202;-79
2023/01/31 02:48:17;;;;;;;2.75;2.47;;;18.50;67.00;;;;;;5036626;28;20640;-81
2023/01/31 02:50:49;;;;;;;3.38;2.42;;;18.50;67.00;;;;;;5035422;28;20195;-79
2023/01/31 02:53:21;;;;;;;3.42;2.63;;;18.40;66.90;;;;;;5036816;28;20275;-78
2023/01/31 02:58:42;;;;;;;4.05;3.25;;;18.40;66.90;;;;;;5036863;28;20210;-80
2023/01/31 03:01:14;;;;;;;4.03;2.80;;;18.40;66.90;;;;;;5036646;28;20577;-78
2023/01/31 03:03:42;;;;;;;3.00;2.47;;;18.40;66.90;;;;;;5035171;28;20207;-79
2023/01/31 03:06:34;;;;;;;4.13;2.30;;;18.40;66.90;;;;;;5035432;28;20659;-79
2023/01/31 03:09:06;;;;;;;2.60;2.30;;;18.40;66.80;;;;;;5037962;28;20199;-78
2023/01/31 03:11:40;;;;;;;2.67;2.30;;;18.40;66.80;;;;;;5036355;28;20203;-78
2023/01/31 03:14:15;;;;;;;2.65;2.30;;;18.30;66.80;;;;;;5037206;28;20669;-78
2023/01/31 03:19:43;;;;;;;3.55;2.40;;;18.30;66.70;;;;;;5040560;28;20194;-78
2023/01/31 03:22:15;;;;;;;2.20;1.95;;;18.30;66.80;;;;;;5039338;28;20191;-78
2023/01/31 03:24:43;;;;;;;4.40;2.60;;;18.30;66.80;;;;;;5039485;28;20200;-78
2023/01/31 03:27:11;;;;;;;4.72;3.00;;;18.30;66.80;;;;;;5040871;28;20215;-79
2023/01/31 03:29:39;;;;;;;6.03;2.60;;;18.30;66.70;;;;;;5041534;28;20731;-77
2023/01/31 03:32:10;;;;;;;3.38;2.15;;;18.30;66.80;;;;;;5041334;28;20202;-78
2023/01/31 03:34:39;;;;;;;4.47;2.40;;;18.30;66.70;;;;;;5038681;28;20744;-79
2023/01/31 03:37:12;;;;;;;2.90;2.40;;;18.30;66.70;;;;;;5040182;28;20545;-78
2023/01/31 03:39:43;;;;;;;2.85;2.15;;;18.20;66.70;;;;;;5037508;28;20219;-79
2023/01/31 03:42:15;;;;;;;2.63;2.17;;;18.20;66.70;;;;;;5040925;28;20231;-78
2023/01/31 03:44:49;;;;;;;3.17;2.42;;;18.20;66.60;;;;;;5037428;28;20209;-78
2023/01/31 03:47:20;;;;;;;3.10;2.40;;;18.20;66.60;;;;;;5038762;28;20649;-79
2023/01/31 03:49:50;;;;;;;3.70;2.30;;;18.20;66.60;;;;;;5037595;28;20204;-80
2023/01/31 03:52:22;;;;;;;2.60;2.30;;;18.20;66.60;;;;;;5040305;28;20226;-79
2023/01/31 03:54:54;;;;;;;3.95;2.75;;;18.20;66.70;;;;;;5039742;28;20701;-80
2023/01/31 03:57:25;;;;;;;3.15;2.42;;;18.20;66.60;;;;;;5037934;28;20674;-80
2023/01/31 03:59:55;;;;;;;4.53;2.47;;;18.20;66.60;;;;;;5042099;28;20198;-80
2023/01/31 04:02:27;;;;;;;3.88;2.60;;;18.20;66.70;;;;;;5039785;28;20211;-80
2023/01/31 04:04:58;;;;;;;2.58;2.00;;;18.10;66.50;;;;;;5038888;28;20193;-81
2023/01/31 04:07:25;;;;;;;3.75;2.90;;;18.10;66.60;;;;;;5041036;28;20296;-81
2023/01/31 04:09:52;;;;;;;4.40;2.63;;;18.10;66.60;;;;;;5038964;28;20196;-80
2023/01/31 04:12:19;;;;;;;3.50;2.80;;;18.10;66.60;;;;;;5038789;28;20207;-81
2023/01/31 04:14:46;;;;;;;5.85;2.28;;;18.10;66.60;;;;;;5038482;28;20732;-78
2023/01/31 04:17:12;;;;;;;2.05;1.70;;;18.10;66.60;;;;;;5039653;28;20704;-78
2023/01/31 04:19:39;;;;;;;3.15;2.17;;;18.10;66.60;;;;;;5039694;28;20203;-78
2023/01/31 04:22:07;;;;;;;2.65;2.35;;;18.10;66.60;;;;;;5038508;28;20205;-78
2023/01/31 04:24:35;;;;;;;3.67;2.30;;;18.10;66.60;;;;;;5040424;28;20665;-81
2023/01/31 04:27:01;;;;;;;4.20;2.45;;;18.10;66.60;;;;;;5036918;28;20311;-80
2023/01/31 04:29:28;;;;;;;4.25;2.33;;;18.00;66.40;;;;;;5040185;28;20621;-80
2023/01/31 04:31:55;;;;;;;3.35;1.88;;;18.00;66.40;;;;;;5038730;28;20198;-81
2023/01/31 04:34:21;;;;;;;2.80;2.25;;;18.10;66.60;;;;;;5038803;28;20210;-81
2023/01/31 04:36:48;;;;;;;2.70;2.10;;;18.00;66.50;;;;;;5038684;28;20206;-79
2023/01/31 04:39:16;;;;;;;2.78;2.47;;;18.00;66.50;;;;;;5038012;28;20202;-78
2023/01/31 04:41:43;;;;;;;3.55;2.22;;;18.00;66.50;;;;;;5039489;28;20580;-80
2023/01/31 04:44:10;;;;;;;2.38;2.17;;;18.00;66.50;;;;;;5037698;28;20210;-81
2023/01/31 04:46:37;;;;;;;2.50;2.28;;;18.00;66.50;;;;;;5036770;28;20670;-81
2023/01/31 04:49:04;;;;;;;2.20;2.00;;;18.00;66.40;;;;;;5039603;28;20216;-81
2023/01/31 04:51:31;;;;;;;2.22;1.52;;;18.00;66.50;;;;;;5039209;28;20216;-79
2023/01/31 04:53:58;;;;;;;3.70;2.15;;;18.00;66.50;;;;;;5034067;28;20222;-81
2023/01/31 04:56:26;;;;;;;2.90;2.00;;;17.90;66.30;;;;;;5037948;28;20215;-80
2023/01/31 04:58:53;;;;;;;2.25;1.85;;;17.90;66.30;;;;;;5038359;28;20203;-79
2023/01/31 05:01:19;;;;;;;2.70;1.60;;;18.00;66.50;;;;;;5036864;28;20212;-80
2023/01/31 05:03:46;;;;;;;3.17;1.88;;;18.00;66.40;;;;;;5039130;28;20682;-80
2023/01/31 05:06:13;;;;;;;2.50;1.88;;;17.90;66.30;;;;;;5037370;28;20218;-79
2023/01/31 05:08:39;;;;;;;3.72;2.63;;;17.90;66.30;;;;;;5037128;28;20208;-80
2023/01/31 05:11:07;;;;;;;2.80;2.13;;;17.90;66.30;;;;;;5036778;28;20214;-81
2023/01/31 05:13:37;;;;;;;2.85;2.00;;;17.90;66.30;;;;;;5036339;28;20585;-81
2023/01/31 05:16:06;;;;;;;2.15;1.80;;;17.90;66.40;;;;;;5036593;28;20330;-79
2023/01/31 05:18:34;;;;;;;3.30;2.00;;;17.90;66.30;;;;;;5036640;28;20203;-80
2023/01/31 05:21:00;;;;;;;4.97;2.40;;;17.90;66.30;;;;;;5036974;28;20214;-80
2023/01/31 05:23:27;;;;;;;3.35;2.17;;;17.80;66.20;;;;;;5040577;28;20986;-80
2023/01/31 05:25:54;;;;;;;3.08;1.95;;;17.80;66.20;;;;;;5039125;28;20191;-81
2023/01/31 05:28:22;;;;;;;2.72;2.05;;;17.80;66.20;;;;;;5035581;28;20222;-81
2023/01/31 05:30:50;;;;;;;2.10;1.63;;;17.80;66.20;;;;;;5038229;28;20935;-80
2023/01/31 05:33:19;;;;;;;2.88;2.20;;;17.80;66.20;;;;;;5036387;28;20218;-80
2023/01/31 05:35:46;;;;;;;4.63;3.20;;;17.80;66.20;;;;;;5038221;28;20859;-80
2023/01/31 05:38:13;;;;;;;3.28;1.83;;;17.80;66.20;;;;;;5037631;28;20200;-80
2023/01/31 05:40:39;;;;;;;2.28;1.95;;;17.80;66.20;;;;;;5038724;28;20566;-80
2023/01/31 05:43:06;;;;;;;3.33;2.33;;;17.80;66.20;;;;;;5038044;28;21172;-80
2023/01/31 05:45:33;;;;;;;2.75;2.28;;;17.80;66.20;;;;;;5037892;28;20205;-80
2023/01/31 05:48:01;;;;;;;2.55;2.08;;;17.80;66.10;;;;;;5037690;28;20207;-79
2023/01/31 05:50:28;;;;;;;2.50;1.60;;;17.80;66.10;;;;;;5039550;28;20191;-78
2023/01/31 05:52:58;;;;;;;2.50;2.00;;;17.70;66.00;;;;;;5037064;28;20223;-79
2023/01/31 05:55:25;;;;;;;2.83;1.90;;;17.80;66.20;;;;;;5036834;28;20225;-79
2023/01/31 05:57:52;;;;;;;2.00;1.77;;;17.70;66.00;;;;;;5038267;28;20834;-80
2023/01/31 06:00:19;;;;;;;2.25;1.95;;;17.70;66.00;;;;;;5035311;28;20198;-81
2023/01/31 06:02:46;;;;;;;3.88;1.80;;;17.70;66.00;;;;;;5036999;28;20206;-80
2023/01/31 06:05:15;;;;;;;3.03;1.98;;;17.70;65.90;;;;;;5036562;28;20206;-80
2023/01/31 06:07:42;;;;;;;2.30;1.75;;;17.70;65.90;;;;;;5038823;28;20551;-80
2023/01/31 06:10:11;;;;;;;2.20;1.90;;;17.70;66.00;;;;;;5038422;28;20213;-80
2023/01/31 06:12:37;;;;;;;2.60;1.83;;;17.70;65.90;;;;;;5037256;28;20215;-80
2023/01/31 06:15:05;;;;;;;2.42;2.00;;;17.70;66.00;;;;;;5036393;28;20680;-80
2023/01/31 06:17:32;;;;;;;2.50;1.63;;;17.70;66.00;;;;;;5036477;28;20207;-80
2023/01/31 06:19:58;;;;;;;2.75;1.80;;;17.70;66.00;;;;;;5037149;28;20210;-78
2023/01/31 06:22:26;;;;;;;3.45;2.13;;;17.70;66.00;;;;;;5037753;28;20584;-81
2023/01/31 06:24:53;;;;;;;2.83;1.75;;;17.70;66.00;;;;;;5037833;28;20666;-80
2023/01/31 06:27:20;;;;;;;2.63;1.67;;;17.70;66.00;;;;;;5035863;28;20215;-80
2023/01/31 06:29:47;;;;;;;3.00;1.73;;;17.60;65.90;;;;;;5035675;28;20205;-80
2023/01/31 06:32:13;;;;;;;1.67;1.33;;;17.60;65.80;;;;;;5036415;28;20228;-79
2023/01/31 06:34:40;;;;;;;2.55;1.83;;;17.60;65.90;;;;;;5038108;28;20220;-80
2023/01/31 06:37:09;;;;;;;2.28;1.50;;;17.60;65.90;;;;;;5037815;28;20223;-80
2023/01/31 06:39:37;;;;;;;2.30;1.55;;;17.60;65.80;;;;;;5034710;28;20199;-79
2023/01/31 06:42:04;;;;;;;2.35;1.67;;;17.60;65.70;;;;;;5034798;28;20210;-79
2023/01/31 06:44:32;;;;;;;2.20;1.75;;;17.70;65.80;;;;;;5036539;28;20665;-80
2023/01/31 06:46:59;;;;;;;2.35;1.75;;;17.70;65.60;;;;;;5035013;28;20700;-81
2023/01/31 06:49:25;;;;;;;3.33;1.88;;;17.70;65.50;;;;;;5037034;28;20203;-81
2023/01/31 06:51:52;;;;;;;2.70;1.70;;;17.70;65.40;;;;;;5039815;28;20227;-79
2023/01/31 06:54:19;;;;;;;2.67;1.70;;;17.80;65.40;;;;;;5042181;28;20209;-79
2023/01/31 06:56:47;;;;;;;2.47;1.55;;;17.80;66.00;;;;;;5038298;28;20705;-80
2023/01/31 06:59:14;;;;;;;2.95;1.73;;;17.80;65.10;;;;;;5039250;28;20210;-80
2023/01/31 07:01:41;;;;;;;2.78;1.60;;;17.90;65.00;;;;;;5040005;28;20204;-79
2023/01/31 07:04:07;;;;;;;2.15;1.70;;;17.90;65.00;;;;;;5039143;28;20203;-81
2023/01/31 07:06:34;;;;;;;3.25;1.90;;;18.00;65.10;;;;;;5041947;28;20205;-80
2023/01/31 07:09:01;;;;;;;2.45;1.70;;;18.00;65.10;;;;;;5041799;28;20676;-80
2023/01/31 07:11:28;;;;;;;1.77;1.55;;;18.00;65.10;;;;;;5039433;28;20231;-79
2023/01/31 07:13:56;;;;;;;2.53;1.95;;;18.00;65.10;;;;;;5039300;28;20597;-80
2023/01/31 07:16:24;;;;;;;2.97;1.90;;;18.00;65.10;;;;;;5040217;28;20225;-80
2023/01/31 07:18:52;;;;;;;3.65;1.40;;;18.10;65.30;;;;;;5040429;28;20226;-79
2023/01/31 07:21:19;;;;;;;3.50;1.52;;;18.10;65.30;;;;;;5040527;28;20200;-80
2023/01/31 07:23:46;;;;;;;1.65;1.35;;;18.10;65.40;;;;;;5041858;28;20203;-80
2023/01/31 07:26:13;;;;;;;2.40;1.73;;;18.10;65.40;;;;;;5040138;28;20497;-79
2023/01/31 07:28:40;;;;;;;2.47;2.05;;;18.20;65.40;;;;;;5041787;28;20207;-79
2023/01/31 07:31:10;;;;;;;1.77;1.67;;;18.20;65.50;;;;;;5040486;28;20206;-80
2023/01/31 07:33:38;;;;;;;1.85;1.45;;;18.20;65.40;;;;;;5040728;28;20195;-80
2023/01/31 07:36:07;;;;;;;2.72;1.98;;;18.20;65.40;;;;;;5039680;28;20218;-79
2023/01/31 07:38:34;;;;;;;1.75;1.50;;;18.20;65.40;;;;;;5039802;28;20207;-80
2023/01/31 07:41:03;;;;;;;1.95;1.52;;;18.20;65.50;;;;;;5040519;28;20263;-80
2023/01/31 07:43:30;;;;;;;2.05;1.45;;;18.30;65.50;;;;;;5038317;28;20214;-81
2023/01/31 07:45:57;;;;;;;2.72;1.45;;;18.30;65.50;;;;;;5039151;28;20206;-81
2023/01/31 07:48:25;;;;;;;1.88;1.40;;;18.30;65.50;;;;;;5039609;28;20226;-80
2023/01/31 07:50:53;;;;;;;2.17;1.20;;;18.30;65.50;;;;;;5039636;28;20206;-80
2023/01/31 07:53:20;;;;;;;1.95;1.20;;;18.30;65.50;;;;;;5039598;28;20312;-81
2023/01/31 07:55:47;;;;;;;2.05;1.52;;;18.30;65.50;;;;;;5039669;28;20225;-81
2023/01/31 07:58:14;;;;;;;2.22;1.60;;;18.30;65.50;;;;;;5039339;28;20213;-79
2023/01/31 08:03:35;;;;;;;1.80;1.30;;;18.40;65.60;;;;;;5037999;28;20206;-80
2023/01/31 08:06:04;;;;;;;3.17;1.88;;;18.40;65.60;;;;;;5039770;28;20204;-79
2023/01/31 08:08:30;;;;;;;1.80;1.40;;;18.40;65.60;;;;;;5040539;28;20224;-79
2023/01/31 08:10:57;;;;;;;2.80;1.45;;;18.40;65.50;;;;;;5037519;28;20206;-81
2023/01/31 08:13:25;;;;;;;1.52;1.25;;;18.40;65.50;;;;;;5038113;28;20227;-81
2023/01/31 08:15:52;;;;;;;1.60;1.48;;;18.40;65.50;;;;;;5039093;28;20318;-80
2023/01/31 08:18:19;;;;;;;1.95;1.50;;;18.50;65.60;;;;;;5039197;28;20199;-80
2023/01/31 08:20:47;;;;;;;2.30;1.40;;;18.50;65.60;;;;;;5041041;28;20200;-80
2023/01/31 08:23:14;;;;;;;1.40;1.30;;;18.50;65.60;;;;;;5039394;28;20203;-80
2023/01/31 08:25:41;;;;;;;1.63;1.45;;;18.50;65.60;;;;;;5037632;28;20219;-80
2023/01/31 08:28:08;;;;;;;2.58;1.95;;;18.50;65.60;;;;;;5036970;28;20219;-80
2023/01/31 08:30:35;;;;;;;3.58;1.85;;;18.60;66.30;;;;;;5034869;28;20216;-77
2023/01/31 08:33:02;;;;;;;3.40;1.52;;;18.60;66.10;;;;;;5035606;28;20207;-77
2023/01/31 08:35:29;;;;;;;2.80;1.40;;;18.60;66.20;;;;;;5039409;28;20684;-76
2023/01/31 08:37:57;;;;;;;2.75;1.30;;;18.60;66.20;;;;;;5039197;28;20227;-77
2023/01/31 08:40:23;;;;;;;2.03;1.50;;;18.70;66.40;;;;;;5036320;28;20549;-79
2023/01/31 08:42:57;;;;;;;2.47;1.85;;;18.70;66.50;;;;;;5038778;28;20211;-78
2023/01/31 08:45:24;;;;;;;1.75;1.52;;;18.70;66.70;;;;;;5038414;28;20280;-78
2023/01/31 08:47:55;;;;;;;2.67;1.60;;;18.80;66.80;;;;;;5038902;28;20202;-80
2023/01/31 08:50:22;;;;;;;2.08;1.30;;;18.80;66.90;;;;;;5037948;28;20273;-77
2023/01/31 08:52:53;;;;;;;9.88;2.28;;;18.80;67.00;;;;;;5038008;28;20219;-79
2023/01/31 08:55:22;;;;;;;3.47;1.52;;;18.80;66.80;;;;;;5038862;28;20280;-80
2023/01/31 08:57:50;;;;;;;3.88;1.50;;;18.80;66.90;;;;;;5036606;28;21601;-79
2023/01/31 09:00:18;;;;;;;2.90;1.98;;;18.80;66.90;;;;;;5036633;28;20199;-78
2023/01/31 09:02:50;;;;;;;8.50;2.15;;;18.80;66.70;;;;;;5036864;28;20287;-79
2023/01/31 09:05:17;;;;;;;2.03;1.40;;;18.80;66.70;;;;;;5034991;28;20226;-78
2023/01/31 09:07:44;;;;;;;2.30;1.35;;;18.80;66.70;;;;;;5037651;28;20651;-79
2023/01/31 09:10:11;;;;;;;2.88;1.60;;;18.80;66.70;;;;;;5038842;28;20686;-80
2023/01/31 09:12:40;;;;;;;6.20;1.50;;;18.80;66.80;;;;;;5037714;28;20559;-79
2023/01/31 09:15:07;;;;;;;8.77;1.83;;;18.80;66.70;;;;;;5038428;28;20688;-79
2023/01/31 09:17:34;;;;;;;2.15;1.33;;;18.80;66.60;;;;;;5037144;28;20837;-79
2023/01/31 09:20:05;;;;;;;2.78;1.60;;;18.80;67.30;;;;;;5036915;28;20670;-78
2023/01/31 09:22:32;;;;;;;1.88;1.60;;;18.80;66.40;;;;;;5038043;28;20705;-79
2023/01/31 09:24:59;;;;;;;2.25;1.90;;;18.80;66.40;;;;;;5036001;28;20582;-79
2023/01/31 09:27:25;;;;;;;3.03;1.50;;;18.80;66.30;;;;;;5036256;28;20313;-80
2023/01/31 09:29:53;;;;;;;2.03;1.38;;;18.80;66.20;;;;;;5038085;28;20227;-79
2023/01/31 09:32:21;;;;;;;1.83;1.67;;;18.80;66.30;;;;;;5033677;28;20212;-79
2023/01/31 09:34:48;;;;;;;3.80;1.60;;;18.80;66.20;;;;;;5037720;28;20271;-79
2023/01/31 09:37:15;;;;;;;2.22;1.60;;;18.80;66.20;;;;;;5036349;28;20222;-79
2023/01/31 09:39:42;;;;;;;1.85;1.30;;;18.80;66.00;;;;;;5034396;28;20241;-79
2023/01/31 09:42:19;;;;;;;3.38;1.90;;;18.80;66.00;;;;;;5035693;28;20201;-78
2023/01/31 09:44:56;;;;;;;4.00;1.30;;;18.80;65.90;;;;;;5039087;28;20227;-79
2023/01/31 09:47:28;;;;;;;2.70;1.90;;;18.80;65.80;;;;;;5035067;28;20325;-80
2023/01/31 09:49:59;;;;;;;2.13;1.38;;;18.80;65.80;;;;;;5037575;28;20208;-80
2023/01/31 09:52:27;;;;;;;1.80;1.52;;;18.80;65.70;;;;;;5036698;28;20217;-80
2023/01/31 09:54:56;;;;;;;2.53;1.30;;;18.80;66.40;;;;;;5035979;28;20234;-79
2023/01/31 09:57:34;;;;;;;2.28;1.50;;;18.80;65.60;;;;;;5035631;28;20239;-80
2023/01/31 10:00:13;;;;;;;2.65;1.80;;;18.90;65.60;;;;;;5036479;28;20211;-80
2023/01/31 10:03:07;;;;;;;2.13;1.42;;;18.90;65.60;;;;;;5033721;28;20199;-79
2023/01/31 10:05:45;;;;;;;2.00;1.40;;;18.90;65.50;;;;;;5034570;28;20238;-80
2023/01/31 10:08:18;;;;;;;3.63;1.58;;;18.90;65.50;;;;;;5037467;28;20646;-79
2023/01/31 10:10:49;;;;;;;2.97;1.90;;;18.90;65.40;;;;;;5036715;28;20196;-80
2023/01/31 10:13:21;;;;;;;4.88;1.80;;;18.90;65.30;;;;;;5034917;28;20207;-80
2023/01/31 10:15:51;;;;;;;2.83;1.85;;;18.90;65.40;;;;;;5038010;28;20807;-79
2023/01/31 10:18:25;;;;;;;2.63;1.67;;;18.90;65.30;;;;;;5035182;28;20223;-79
2023/01/31 10:20:57;;;;;;;5.20;1.80;;;18.90;65.30;;;;;;5035340;28;20199;-79
2023/01/31 10:23:29;;;;;;;1.35;1.25;;;18.90;65.20;;;;;;5030626;28;20211;-80
2023/01/31 10:26:00;;;;;;;2.33;1.75;;;19.00;65.30;;;;;;5031987;28;20320;-82
2023/01/31 10:28:34;;;;;;;2.75;1.60;;;19.00;65.20;;;;;;5031928;28;20732;-85
2023/01/31 10:31:06;;;;;;;2.55;1.60;;;19.00;65.10;;;;;;5033895;28;20917;-83
2023/01/31 10:33:42;;;;;;;3.15;1.65;;;19.10;66.20;;;;;;5034891;28;20671;-83
2023/01/31 10:36:14;;;;;;;3.15;1.58;;;19.10;65.50;;;;;;5032470;28;20593;-82
2023/01/31 10:38:54;;;;;;;1.80;1.35;;;19.10;65.70;;;;;;5034139;28;20575;-79
2023/01/31 10:41:31;;;;;;;1.45;1.35;;;19.10;65.70;;;;;;5035047;28;20199;-82
2023/01/31 10:44:05;;;;;;;2.15;1.33;;;19.20;65.90;;;;;;5031540;28;20207;-80
2023/01/31 10:46:32;;;;;;;2.28;1.20;;;19.20;65.90;;;;;;5035102;28;20211;-83
2023/01/31 10:49:00;;;;;;;1.50;1.13;;;19.20;66.00;;;;;;5034464;28;20294;-82
2023/01/31 10:51:46;;;;;;;2.47;1.65;;;19.20;66.00;;;;;;5036461;28;20228;-82
2023/01/31 10:54:28;;;;;;;1.50;1.20;;;19.20;66.10;;;;;;5036339;28;20204;-78
2023/01/31 10:56:55;;;;;;;1.70;1.27;;;19.30;66.30;;;;;;5031256;28;20338;-82
2023/01/31 10:59:25;;;;;;;1.40;1.13;;;19.30;66.30;;;;;;5035939;28;20212;-81
2023/01/31 11:01:52;;;;;;;1.30;1.08;;;19.30;66.30;;;;;;5031683;28;21391;-82
2023/01/31 11:04:30;;;;;;;3.17;1.33;;;19.40;66.40;;;;;;5035695;28;20197;-81
2023/01/31 11:06:59;;;;;;;2.03;1.33;;;19.40;66.40;;;;;;5037123;28;20196;-80
2023/01/31 11:09:29;;;;;;;1.92;1.40;;;19.40;66.40;;;;;;5036322;28;20197;-80
2023/01/31 11:11:58;;;;;;;2.35;1.20;;;19.40;66.30;;;;;;5034204;28;20201;-86
2023/01/31 11:14:25;;;;;;;5.20;1.55;;;19.40;66.00;;;;;;5034822;28;20208;-83
2023/01/31 11:16:59;;;;;;;1.85;1.48;;;19.40;66.00;;;;;;5038019;28;20235;-84
2023/01/31 11:19:34;;;;;;;1.38;1.25;;;19.40;66.00;;;;;;5034879;28;20629;-84
2023/01/31 11:22:02;;;;;;;2.22;1.35;;;19.40;66.00;;;;;;5035997;28;20205;-84
2023/01/31 11:24:32;;;;;;;2.40;1.52;;;19.40;66.10;;;;;;5037227;28;20204;-80
2023/01/31 11:27:02;;;;;;;1.40;1.00;;;19.50;66.20;;;;;;5035544;28;20667;-78
2023/01/31 11:29:31;;;;;;;2.10;1.20;;;19.50;66.20;;;;;;5037352;28;20250;-79
2023/01/31 11:32:00;;;;;;;1.27;0.90;;;19.50;66.20;;;;;;5036518;28;20208;-79
2023/01/31 11:34:29;;;;;;;3.20;1.45;;;19.50;66.30;;;;;;5037560;28;20208;-78
2023/01/31 11:37:13;;;;;;;1.92;1.35;;;19.60;66.40;;;;;;5038767;28;20679;-79
2023/01/31 11:39:40;;;;;;;3.85;1.42;;;19.60;66.90;;;;;;5038361;28;20201;-80
2023/01/31 11:42:12;;;;;;;1.83;1.30;;;19.60;66.40;;;;;;5039283;28;20677;-78
2023/01/31 11:44:54;;;;;;;1.27;0.95;;;19.60;66.40;;;;;;5038695;28;20670;-80
2023/01/31 11:47:25;;;;;;;2.03;1.10;;;19.60;66.40;;;;;;5039642;28;20567;-80
2023/01/31 11:49:53;;;;;;;1.92;1.40;;;19.70;66.50;;;;;;5041150;28;20210;-80
2023/01/31 11:52:23;;;;;;;2.35;1.42;;;19.70;66.50;;;;;;5038962;28;20905;-80
2023/01/31 11:54:54;;;;;;;1.55;1.20;;;19.70;66.40;;;;;;5039746;28;20209;-78
2023/01/31 11:57:24;;;;;;;2.17;1.30;;;19.70;66.50;;;;;;5038470;28;20221;-80
2023/01/31 11:59:54;;;;;;;2.20;1.55;;;19.70;66.40;;;;;;5038759;28;20201;-79
2023/01/31 12:02:30;;;;;;;1.50;1.20;;;19.70;66.40;;;;;;5036707;28;21368;-78
2023/01/31 12:05:01;;;;;;;1.83;1.40;;;19.80;66.60;;;;;;5038068;28;20201;-79
2023/01/31 12:07:32;;;;;;;2.33;1.20;;;19.80;66.60;;;;;;5040298;28;20762;-80
2023/01/31 12:09:59;;;;;;;1.55;1.40;;;19.80;66.60;;;;;;5041008;28;20210;-81
2023/01/31 12:12:33;;;;;;;2.22;1.27;;;19.80;66.60;;;;;;5038926;28;20224;-78
2023/01/31 12:15:02;;;;;;;2.40;1.63;;;19.80;66.60;;;;;;5037618;28;20186;-79
2023/01/31 12:17:31;;;;;;;1.40;1.30;;;19.80;66.60;;;;;;5039656;28;20722;-78
2023/01/31 12:20:20;;;;;;;2.22;1.35;;;19.80;66.60;;;;;;5039434;28;20206;-80
2023/01/31 12:22:55;;;;;;;2.30;1.45;;;19.80;66.60;;;;;;5040182;28;20202;-81
2023/01/31 12:25:28;;;;;;;2.28;1.40;;;19.90;66.70;;;;;;5043892;28;20219;-84
2023/01/31 12:28:09;;;;;;;2.17;1.38;;;19.90;66.70;;;;;;5042797;28;20212;-85
2023/01/31 12:31:03;;;;;;;2.10;1.30;;;19.90;66.70;;;;;;5045074;28;20560;-85
2023/01/31 12:33:41;;;;;;;2.45;1.25;;;19.90;66.70;;;;;;5044171;28;20208;-84
2023/01/31 12:36:24;;;;;;;2.10;1.67;;;19.90;67.50;;;;;;5045826;28;20199;-81
2023/01/31 12:39:06;;;;;;;1.38;1.20;;;19.90;66.70;;;;;;5044460;28;20722;-83
2023/01/31 12:41:39;;;;;;;1.42;1.00;;;19.90;66.70;;;;;;5041118;28;20209;-82
2023/01/31 12:44:36;;;;;;;1.60;1.35;;;19.90;66.70;;;;;;5040974;28;20205;-81
2023/01/31 12:47:32;;;;;;;3.15;1.30;;;19.90;66.70;;;;;;5044473;28;20201;-80
2023/01/31 12:50:18;;;;;;;1.50;1.00;;;20.00;66.80;;;;;;5043441;28;20193;-80
2023/01/31 12:52:54;;;;;;;6.03;1.20;;;20.00;66.80;;;;;;5044166;28;22175;-79
2023/01/31 12:55:35;;;;;;;1.90;1.20;;;20.00;66.80;;;;;;5046764;28;20205;-84
2023/01/31 12:58:20;;;;;;;1.30;1.08;;;20.00;66.80;;;;;;5046972;28;20689;-85
2023/01/31 13:00:57;;;;;;;2.78;1.40;;;20.00;66.90;;;;;;5045333;28;20302;-84
2023/01/31 13:03:41;;;;;;;1.60;1.35;;;20.00;67.00;;;;;;5044040;28;20694;-86
2023/01/31 13:06:14;;;;;;;2.60;1.08;;;20.10;67.10;;;;;;5041802;28;20201;-79
2023/01/31 13:08:47;;;;;;;3.90;1.75;;;20.10;67.10;;;;;;5038610;28;20231;-82
2023/01/31 13:11:19;;;;;;;5.85;2.90;;;20.10;67.10;;;;;;5037236;28;20208;-83
2023/01/31 13:13:50;;;;;;;7.35;3.95;;;19.80;64.70;;;;;;5038714;28;20197;-83